createdAt,value
2018-02-21T00:02:02.528Z,95690.02
2018-02-21T00:04:32.417Z,95687.23
2018-02-21T00:07:00.839Z,95689.05
2018-02-21T00:09:29.209Z,95694.67
2018-02-21T00:11:57.818Z,95692.84
2018-02-21T00:14:26.295Z,95695.96
2018-02-21T00:16:54.638Z,95693.94
2018-02-21T00:19:23.867Z,95695.67
2018-02-21T00:21:52.215Z,95702.76
2018-02-21T00:24:20.585Z,95701.69
2018-02-21T00:26:48.962Z,95699.70
2018-02-21T00:29:17.314Z,95701.69
2018-02-21T00:31:45.687Z,95705.00
2018-02-21T00:34:14.049Z,95701.72
2018-02-21T00:36:42.419Z,95695.14
2018-02-21T00:39:10.824Z,95703.55
2018-02-21T00:41:39.211Z,95703.73
2018-02-21T00:44:07.560Z,95692.77
2018-02-21T00:46:35.952Z,95698.88
2018-02-21T00:49:04.303Z,95697.00
2018-02-21T00:51:32.651Z,95694.54
2018-02-21T00:54:01.029Z,95689.64
2018-02-21T00:56:29.449Z,95688.13
2018-02-21T00:58:57.826Z,95695.02
2018-02-21T01:01:26.206Z,95695.52
2018-02-21T01:03:54.574Z,95701.78
2018-02-21T01:06:22.930Z,95697.13
2018-02-21T01:08:51.310Z,95706.08
2018-02-21T01:11:19.679Z,95700.10
2018-02-21T01:13:48.040Z,95704.40
2018-02-21T01:16:16.414Z,95703.48
2018-02-21T01:18:44.773Z,95704.08
2018-02-21T01:21:13.124Z,95701.62
2018-02-21T01:23:41.507Z,95699.78
2018-02-21T01:26:09.884Z,95696.46
2018-02-21T01:28:38.238Z,95704.56
2018-02-21T01:31:06.618Z,95696.02
2018-02-21T01:33:34.986Z,95700.89
2018-02-21T01:36:03.358Z,95699.15
2018-02-21T01:38:31.727Z,95708.06
2018-02-21T01:41:00.090Z,95705.89
2018-02-21T01:43:28.441Z,95707.69
2018-02-21T01:45:56.821Z,95708.55
2018-02-21T01:48:25.174Z,95708.00
2018-02-21T01:50:53.568Z,95708.32
2018-02-21T01:53:21.953Z,95709.68
2018-02-21T01:55:50.310Z,95711.61
2018-02-21T01:58:18.675Z,95709.64
2018-02-21T02:00:47.047Z,95716.70
2018-02-21T02:03:15.418Z,95707.75
2018-02-21T02:05:43.783Z,95710.59
2018-02-21T02:08:12.214Z,95710.22
2018-02-21T02:10:40.595Z,95712.02
2018-02-21T02:13:08.946Z,95713.63
2018-02-21T02:15:37.306Z,95708.45
2018-02-21T02:18:05.668Z,95710.98
2018-02-21T02:20:34.026Z,95707.94
2018-02-21T02:23:02.386Z,95709.75
2018-02-21T02:25:30.740Z,95720.30
2018-02-21T02:27:59.102Z,95715.94
2018-02-21T02:30:27.520Z,95715.41
2018-02-21T02:32:55.878Z,95718.06
2018-02-21T02:35:24.231Z,95723.14
2018-02-21T02:37:52.593Z,95722.27
2018-02-21T02:40:20.963Z,95726.63
2018-02-21T02:42:49.319Z,95720.05
2018-02-21T02:45:17.687Z,95720.17
2018-02-21T02:47:46.044Z,95721.66
2018-02-21T02:50:14.435Z,95721.28
2018-02-21T02:52:42.802Z,95735.03
2018-02-21T02:55:11.201Z,95731.72
2018-02-21T02:57:39.560Z,95732.76
2018-02-21T03:00:07.922Z,95739.87
2018-02-21T03:02:36.278Z,95734.69
2018-02-21T03:05:04.632Z,95739.81
2018-02-21T03:07:33.013Z,95740.37
2018-02-21T03:10:01.354Z,95739.55
2018-02-21T03:12:29.712Z,95737.78
2018-02-21T03:14:58.127Z,95732.85
2018-02-21T03:17:26.504Z,95731.81
2018-02-21T03:19:54.863Z,95734.22
2018-02-21T03:22:23.282Z,95726.15
2018-02-21T03:24:51.622Z,95733.45
2018-02-21T03:27:19.974Z,95730.70
2018-02-21T03:29:48.338Z,95734.66
2018-02-21T03:32:21.543Z,95730.16
2018-02-21T03:34:49.965Z,95730.36
2018-02-21T03:37:18.315Z,95733.01
2018-02-21T03:39:46.672Z,95730.39
2018-02-21T03:42:15.052Z,95732.31
2018-02-21T03:44:43.407Z,95731.66
2018-02-21T03:47:11.750Z,95736.36
2018-02-21T03:49:40.223Z,95741.07
2018-02-21T03:52:08.578Z,95733.08
2018-02-21T03:54:36.926Z,95731.34
2018-02-21T03:57:05.296Z,95734.50
2018-02-21T03:59:33.677Z,95737.75
2018-02-21T04:02:02.028Z,95743.70
2018-02-21T04:04:30.393Z,95737.31
2018-02-21T04:06:58.741Z,95740.50
2018-02-21T04:09:27.159Z,95741.27
2018-02-21T04:11:55.520Z,95741.80
2018-02-21T04:14:23.875Z,95748.31
2018-02-21T04:16:52.227Z,95749.26
2018-02-21T04:19:20.591Z,95747.33
2018-02-21T04:21:48.987Z,95747.74
2018-02-21T04:24:17.343Z,95754.13
2018-02-21T04:26:45.706Z,95748.87
2018-02-21T04:29:14.082Z,95749.61
2018-02-21T04:31:42.460Z,95752.96
2018-02-21T04:34:10.825Z,95759.95
2018-02-21T04:36:39.181Z,95761.05
2018-02-21T04:39:07.538Z,95758.48
2018-02-21T04:41:35.913Z,95765.61
2018-02-21T04:44:04.271Z,95769.24
2018-02-21T04:46:32.634Z,95772.40
2018-02-21T04:49:01.010Z,95770.63
2018-02-21T04:51:29.394Z,95775.94
2018-02-21T04:53:57.745Z,95774.93
2018-02-21T04:59:38.828Z,95776.16
2018-02-21T05:02:07.329Z,95777.98
2018-02-21T05:04:35.681Z,95772.20
2018-02-21T05:07:04.027Z,95775.51
2018-02-21T05:09:32.392Z,95777.08
2018-02-21T05:12:00.733Z,95775.95
2018-02-21T05:14:29.086Z,95776.31
2018-02-21T05:16:57.447Z,95774.82
2018-02-21T05:19:25.795Z,95777.70
2018-02-21T05:21:54.134Z,95774.21
2018-02-21T05:24:22.515Z,95778.14
2018-02-21T05:26:50.862Z,95785.33
2018-02-21T05:29:19.214Z,95781.64
2018-02-21T05:31:47.576Z,95783.32
2018-02-21T05:34:15.928Z,95784.25
2018-02-21T05:36:44.285Z,95783.55
2018-02-21T05:39:12.646Z,95778.27
2018-02-21T05:41:41.004Z,95787.77
2018-02-21T05:44:09.368Z,95793.56
2018-02-21T05:46:37.737Z,95798.85
2018-02-21T05:49:06.109Z,95803.55
2018-02-21T05:51:34.473Z,95808.95
2018-02-21T05:54:02.846Z,95813.21
2018-02-21T05:56:31.190Z,95808.47
2018-02-21T05:58:59.549Z,95806.75
2018-02-21T06:01:27.910Z,95808.70
2018-02-21T06:03:56.269Z,95810.81
2018-02-21T06:06:24.624Z,95821.30
2018-02-21T06:08:53.024Z,95819.16
2018-02-21T06:11:21.378Z,95821.77
2018-02-21T06:13:49.725Z,95828.03
2018-02-21T06:16:18.140Z,95820.39
2018-02-21T06:18:46.502Z,95824.83
2018-02-21T06:21:14.867Z,95823.13
2018-02-21T06:23:43.231Z,95825.01
2018-02-21T06:26:11.592Z,95831.50
2018-02-21T06:28:39.943Z,95828.06
2018-02-21T06:31:08.307Z,95826.51
2018-02-21T06:33:36.687Z,95823.83
2018-02-21T06:36:05.043Z,95824.45
2018-02-21T06:38:33.413Z,95825.63
2018-02-21T06:41:01.784Z,95828.53
2018-02-21T06:43:30.142Z,95830.39
2018-02-21T06:45:58.507Z,95827.03
2018-02-21T06:48:26.866Z,95828.01
2018-02-21T06:50:55.246Z,95826.36
2018-02-21T06:53:23.614Z,95829.79
2018-02-21T06:55:51.974Z,95829.30
2018-02-21T06:58:20.353Z,95830.85
2018-02-21T07:00:48.714Z,95832.18
2018-02-21T07:03:17.076Z,95831.27
2018-02-21T07:05:45.491Z,95833.03
2018-02-21T07:08:13.870Z,95838.75
2018-02-21T07:10:42.223Z,95829.52
2018-02-21T07:13:10.586Z,95834.69
2018-02-21T07:15:38.990Z,95836.09
2018-02-21T07:18:07.326Z,95829.09
2018-02-21T07:20:35.692Z,95829.74
2018-02-21T07:23:04.072Z,95824.32
2018-02-21T07:25:32.442Z,95830.41
2018-02-21T07:28:00.807Z,95838.48
2018-02-21T07:30:29.179Z,95840.34
2018-02-21T07:32:57.538Z,95841.05
2018-02-21T07:35:25.910Z,95844.36
2018-02-21T07:37:54.278Z,95848.23
2018-02-21T07:40:22.641Z,95839.56
2018-02-21T07:42:50.996Z,95846.48
2018-02-21T07:45:19.365Z,95844.57
2018-02-21T07:47:47.781Z,95841.29
2018-02-21T07:50:16.144Z,95843.47
2018-02-21T07:52:44.509Z,95846.30
2018-02-21T07:55:12.873Z,95849.37
2018-02-21T07:57:41.256Z,95849.52
2018-02-21T08:00:09.669Z,95845.70
2018-02-21T08:02:38.019Z,95847.16
2018-02-21T08:05:06.412Z,95853.13
2018-02-21T08:07:34.788Z,95852.10
2018-02-21T08:10:03.141Z,95848.44
2018-02-21T08:12:31.494Z,95847.98
2018-02-21T08:14:59.858Z,95852.84
2018-02-21T08:17:28.236Z,95854.91
2018-02-21T08:19:56.616Z,95860.16
2018-02-21T08:22:24.974Z,95859.56
2018-02-21T08:24:53.327Z,95862.41
2018-02-21T08:27:21.741Z,95852.52
2018-02-21T08:29:50.133Z,95867.22
2018-02-21T08:32:18.502Z,95861.05
2018-02-21T08:34:46.859Z,95860.05
2018-02-21T08:37:15.232Z,95860.72
2018-02-21T08:39:43.617Z,95866.09
2018-02-21T08:42:11.968Z,95866.06
2018-02-21T08:44:40.330Z,95865.92
2018-02-21T08:47:08.688Z,95866.81
2018-02-21T08:49:37.659Z,95867.28
2018-02-21T08:52:06.051Z,95873.32
2018-02-21T08:54:34.390Z,95874.70
2018-02-21T08:57:02.742Z,95878.09
2018-02-21T08:59:31.114Z,95874.20
2018-02-21T09:02:00.422Z,95881.75
2018-02-21T09:04:28.776Z,95874.09
2018-02-21T09:06:57.134Z,95871.10
2018-02-21T09:09:25.491Z,95869.94
2018-02-21T09:11:53.846Z,95870.16
2018-02-21T09:14:22.222Z,95868.45
2018-02-21T09:16:50.573Z,95869.53
2018-02-21T09:19:18.956Z,95872.52
2018-02-21T09:21:47.327Z,95872.87
2018-02-21T09:24:15.675Z,95867.48
2018-02-21T09:26:44.025Z,95861.83
2018-02-21T09:29:12.422Z,95861.55
2018-02-21T09:31:40.739Z,95861.63
2018-02-21T09:34:09.155Z,95857.67
2018-02-21T09:36:37.522Z,95855.01
2018-02-21T09:39:05.891Z,95843.32
2018-02-21T09:41:34.234Z,95848.32
2018-02-21T09:44:02.587Z,95844.45
2018-02-21T09:46:30.931Z,95841.39
2018-02-21T09:48:59.331Z,95838.38
2018-02-21T09:51:27.710Z,95836.12
2018-02-21T09:53:56.071Z,95839.69
2018-02-21T09:56:24.436Z,95838.47
2018-02-21T09:58:52.791Z,95841.54
2018-02-21T10:01:21.140Z,95843.30
2018-02-21T10:03:49.474Z,95840.91
2018-02-21T10:06:17.835Z,95843.03
2018-02-21T10:08:46.202Z,95838.72
2018-02-21T10:11:14.534Z,95836.45
2018-02-21T10:13:42.890Z,95836.41
2018-02-21T10:16:11.232Z,95837.92
2018-02-21T10:18:39.566Z,95839.25
2018-02-21T10:21:07.938Z,95840.34
2018-02-21T10:23:36.283Z,95842.67
2018-02-21T10:26:04.618Z,95834.33
2018-02-21T10:28:32.976Z,95834.73
2018-02-21T10:31:01.329Z,95838.78
2018-02-21T10:33:29.687Z,95836.51
2018-02-21T10:35:58.043Z,95837.70
2018-02-21T10:38:26.385Z,95833.36
2018-02-21T10:40:54.735Z,95836.47
2018-02-21T10:43:23.131Z,95832.63
2018-02-21T10:45:51.459Z,95829.68
2018-02-21T10:48:19.995Z,95828.11
2018-02-21T10:50:48.347Z,95821.00
2018-02-21T10:53:16.686Z,95818.52
2018-02-21T10:55:45.030Z,95817.84
2018-02-21T10:58:13.384Z,95821.45
2018-02-21T11:00:47.267Z,95815.84
2018-02-21T11:03:15.623Z,95812.39
2018-02-21T11:05:44.075Z,95817.66
2018-02-21T11:08:12.415Z,95813.50
2018-02-21T11:10:40.765Z,95815.03
2018-02-21T11:13:09.110Z,95815.23
2018-02-21T11:15:37.446Z,95813.25
2018-02-21T11:18:05.785Z,95807.70
2018-02-21T11:20:34.362Z,95805.40
2018-02-21T11:23:02.740Z,95797.67
2018-02-21T11:25:31.084Z,95798.50
2018-02-21T11:27:59.438Z,95795.81
2018-02-21T11:30:27.782Z,95793.41
2018-02-21T11:35:47.864Z,95798.25
2018-02-21T11:38:16.198Z,95793.52
2018-02-21T11:40:44.576Z,95788.89
2018-02-21T11:43:12.936Z,95787.63
2018-02-21T11:45:41.316Z,95786.37
2018-02-21T11:48:09.664Z,95788.03
2018-02-21T11:50:38.042Z,95786.45
2018-02-21T11:53:06.384Z,95777.48
2018-02-21T11:55:34.728Z,95765.64
2018-02-21T11:58:03.093Z,95771.37
2018-02-21T12:00:31.451Z,95764.17
2018-02-21T12:02:59.811Z,95763.78
2018-02-21T12:05:28.210Z,95757.28
2018-02-21T12:07:56.582Z,95764.66
2018-02-21T12:10:24.923Z,95766.48
2018-02-21T12:12:53.307Z,95764.22
2018-02-21T12:15:21.650Z,95762.70
2018-02-21T12:17:50.014Z,95765.50
2018-02-21T12:20:18.366Z,95760.03
2018-02-21T12:22:46.785Z,95768.19
2018-02-21T12:25:15.237Z,95764.17
2018-02-21T12:27:43.614Z,95752.47
2018-02-21T12:30:11.966Z,95766.44
2018-02-21T12:32:40.696Z,95760.98
2018-02-21T12:35:09.138Z,95769.34
2018-02-21T12:37:38.789Z,95766.64
2018-02-21T12:40:07.143Z,95761.48
2018-02-21T12:42:35.489Z,95764.67
2018-02-21T12:45:03.835Z,95756.61
2018-02-21T12:47:32.181Z,95760.55
2018-02-21T12:50:00.539Z,95757.73
2018-02-21T12:52:28.881Z,95754.40
2018-02-21T12:54:57.239Z,95755.53
2018-02-21T12:57:25.577Z,95762.01
2018-02-21T12:59:53.935Z,95757.83
2018-02-21T13:02:22.279Z,95750.20
2018-02-21T13:04:50.626Z,95748.81
2018-02-21T13:07:19.020Z,95752.24
2018-02-21T13:09:47.370Z,95746.12
2018-02-21T13:12:15.714Z,95743.03
2018-02-21T13:14:44.078Z,95743.65
2018-02-21T13:17:12.432Z,95744.63
2018-02-21T13:19:40.782Z,95753.19
2018-02-21T13:22:09.159Z,95747.00
2018-02-21T13:24:37.037Z,95755.02
2018-02-21T13:27:05.291Z,95751.37
2018-02-21T13:29:33.635Z,95757.08
2018-02-21T13:32:02.055Z,95762.81
2018-02-21T13:34:30.395Z,95759.98
2018-02-21T13:36:58.746Z,95757.36
2018-02-21T13:39:27.083Z,95755.19
2018-02-21T13:41:55.422Z,95752.33
2018-02-21T13:44:23.860Z,95747.77
2018-02-21T13:46:52.216Z,95754.02
2018-02-21T13:49:20.560Z,95750.84
2018-02-21T13:51:48.914Z,95756.23
2018-02-21T13:54:17.275Z,95750.55
2018-02-21T13:56:45.618Z,95747.97
2018-02-21T13:59:13.957Z,95753.02
2018-02-21T14:01:42.326Z,95750.83
2018-02-21T14:04:10.701Z,95749.28
2018-02-21T14:06:39.046Z,95742.98
2018-02-21T14:09:07.411Z,95750.93
2018-02-21T14:11:35.743Z,95751.30
2018-02-21T14:14:04.086Z,95741.98
2018-02-21T14:16:32.433Z,95737.54
2018-02-21T14:19:00.797Z,95737.92
2018-02-21T14:21:29.139Z,95736.48
2018-02-21T14:23:57.502Z,95737.61
2018-02-21T14:26:25.846Z,95735.48
2018-02-21T14:28:54.193Z,95741.59
2018-02-21T14:31:22.535Z,95736.36
2018-02-21T14:33:50.914Z,95733.37
2018-02-21T14:36:19.253Z,95735.82
2018-02-21T14:38:47.614Z,95733.08
2018-02-21T14:41:15.952Z,95734.85
2018-02-21T14:43:44.326Z,95732.50
2018-02-21T14:46:12.669Z,95732.51
2018-02-21T14:48:41.026Z,95727.61
2018-02-21T14:51:09.367Z,95732.22
2018-02-21T14:53:37.728Z,95729.73
2018-02-21T14:56:06.092Z,95732.70
2018-02-21T14:58:34.442Z,95731.04
2018-02-21T15:01:02.791Z,95731.77
2018-02-21T15:03:31.149Z,95731.04
2018-02-21T15:05:59.511Z,95726.52
2018-02-21T15:08:28.006Z,95724.75
2018-02-21T15:10:56.353Z,95733.91
2018-02-21T15:13:24.704Z,95726.84
2018-02-21T15:15:53.060Z,95735.38
2018-02-21T15:18:21.400Z,95732.94
2018-02-21T15:20:49.797Z,95733.36
2018-02-21T15:23:18.143Z,95734.16
2018-02-21T15:25:46.509Z,95730.03
2018-02-21T15:28:14.875Z,95733.86
2018-02-21T15:30:43.232Z,95734.53
2018-02-21T15:33:11.588Z,95731.87
2018-02-21T15:35:39.975Z,95731.06
2018-02-21T15:38:08.300Z,95739.03
2018-02-21T15:40:36.647Z,95744.46
2018-02-21T15:43:04.988Z,95734.23
2018-02-21T15:45:33.358Z,95738.63
2018-02-21T15:48:01.715Z,95741.31
2018-02-21T15:50:30.099Z,95741.00
2018-02-21T15:52:58.440Z,95747.72
2018-02-21T15:55:26.890Z,95750.25
2018-02-21T15:57:55.226Z,95753.79
2018-02-21T16:00:23.584Z,95749.76
2018-02-21T16:02:51.971Z,95751.44
2018-02-21T16:05:20.404Z,95751.59
2018-02-21T16:07:48.747Z,95753.20
2018-02-21T16:10:17.160Z,95750.77
2018-02-21T16:12:45.511Z,95753.20
2018-02-21T16:15:13.874Z,95755.69
2018-02-21T16:17:42.214Z,95752.84
2018-02-21T16:20:10.602Z,95752.52
2018-02-21T16:22:38.951Z,95750.88
2018-02-21T16:25:07.319Z,95747.92
2018-02-21T16:27:35.672Z,95754.59
2018-02-21T16:30:04.024Z,95753.59
2018-02-21T16:32:32.386Z,95753.19
2018-02-21T16:35:00.738Z,95754.75
2018-02-21T16:37:29.828Z,95759.83
2018-02-21T16:39:58.174Z,95753.11
2018-02-21T16:42:26.538Z,95760.05
2018-02-21T16:44:54.893Z,95762.61
2018-02-21T16:47:23.274Z,95765.84
2018-02-21T16:49:51.620Z,95765.43
2018-02-21T16:52:20.008Z,95767.02
2018-02-21T16:54:48.365Z,95765.88
2018-02-21T16:57:16.735Z,95768.31
2018-02-21T16:59:45.079Z,95772.98
2018-02-21T17:02:13.458Z,95772.67
2018-02-21T17:04:41.810Z,95768.23
2018-02-21T17:07:10.218Z,95773.30
2018-02-21T17:09:38.568Z,95777.09
2018-02-21T17:12:06.920Z,95774.34
2018-02-21T17:14:35.304Z,95770.05
2018-02-21T17:17:03.650Z,95771.20
2018-02-21T17:19:32.016Z,95774.58
2018-02-21T17:22:00.367Z,95774.43
2018-02-21T17:24:28.747Z,95764.66
2018-02-21T17:26:57.141Z,95770.92
2018-02-21T17:29:25.507Z,95771.97
2018-02-21T17:31:53.866Z,95773.67
2018-02-21T17:34:22.223Z,95773.44
2018-02-21T17:36:50.592Z,95778.55
2018-02-21T17:39:18.988Z,95774.85
2018-02-21T17:41:47.346Z,95786.68
2018-02-21T17:44:15.690Z,95790.80
2018-02-21T17:46:44.071Z,95788.84
2018-02-21T17:49:12.462Z,95791.73
2018-02-21T17:51:41.006Z,95789.77
2018-02-21T17:54:09.346Z,95791.61
2018-02-21T17:56:37.730Z,95789.25
2018-02-21T17:59:06.082Z,95785.59
2018-02-21T18:01:34.446Z,95787.28
2018-02-21T18:04:02.806Z,95791.17
2018-02-21T18:06:31.186Z,95791.21
2018-02-21T18:08:59.543Z,95792.86
2018-02-21T18:11:27.931Z,95793.02
2018-02-21T18:13:56.688Z,95797.89
2018-02-21T18:16:25.113Z,95785.81
2018-02-21T18:18:53.471Z,95784.38
2018-02-21T18:21:27.670Z,95786.81
2018-02-21T18:23:56.027Z,95791.81
2018-02-21T18:26:24.378Z,95788.37
2018-02-21T18:28:52.749Z,95785.01
2018-02-21T18:31:21.110Z,95777.07
2018-02-21T18:33:49.483Z,95785.09
2018-02-21T18:36:17.861Z,95785.55
2018-02-21T18:38:46.230Z,95785.55
2018-02-21T18:41:14.580Z,95783.74
2018-02-21T18:43:42.952Z,95782.59
2018-02-21T18:46:11.303Z,95785.09
2018-02-21T18:48:39.666Z,95785.45
2018-02-21T18:51:08.026Z,95777.73
2018-02-21T18:53:36.434Z,95780.92
2018-02-21T18:56:04.788Z,95784.89
2018-02-21T18:58:33.157Z,95782.86
2018-02-21T19:01:01.526Z,95783.91
2018-02-21T19:03:29.874Z,95782.38
2018-02-21T19:05:58.266Z,95786.30
2018-02-21T19:08:26.611Z,95785.80
2018-02-21T19:10:55.041Z,95781.92
2018-02-21T19:13:23.387Z,95784.44
2018-02-21T19:15:51.755Z,95781.34
2018-02-21T19:18:20.146Z,95781.32
2018-02-21T19:20:48.518Z,95782.59
2018-02-21T19:23:16.883Z,95779.78
2018-02-21T19:25:45.255Z,95784.48
2018-02-21T19:28:13.610Z,95780.51
2018-02-21T19:30:41.979Z,95779.28
2018-02-21T19:33:10.366Z,95780.38
2018-02-21T19:35:38.722Z,95782.60
2018-02-21T19:38:07.088Z,95780.92
2018-02-21T19:40:35.436Z,95779.56
2018-02-21T19:43:03.941Z,95773.80
2018-02-21T19:45:32.285Z,95776.58
2018-02-21T19:48:00.645Z,95778.42
2018-02-21T19:50:29.046Z,95775.62
2018-02-21T19:52:57.391Z,95777.26
2018-02-21T19:55:25.760Z,95779.69
2018-02-21T19:57:54.107Z,95776.13
2018-02-21T20:00:22.490Z,95779.93
2018-02-21T20:02:50.831Z,95786.74
2018-02-21T20:05:19.243Z,95786.13
2018-02-21T20:07:47.612Z,95782.94
2018-02-21T20:10:16.003Z,95785.73
2018-02-21T20:12:44.358Z,95785.42
2018-02-21T20:15:12.708Z,95788.05
2018-02-21T20:17:41.074Z,95784.09
2018-02-21T20:20:09.419Z,95783.41
2018-02-21T20:22:37.774Z,95782.73
2018-02-21T20:25:06.122Z,95785.05
2018-02-21T20:27:34.494Z,95785.18
2018-02-21T20:30:02.851Z,95782.55
2018-02-21T20:32:31.215Z,95786.16
2018-02-21T20:34:59.571Z,95787.23
2018-02-21T20:37:27.943Z,95783.07
2018-02-21T20:39:56.296Z,95784.27
2018-02-21T20:42:24.669Z,95782.28
2018-02-21T20:44:53.035Z,95778.63
2018-02-21T20:47:21.384Z,95778.20
2018-02-21T20:49:49.735Z,95779.83
2018-02-21T20:52:18.091Z,95775.74
2018-02-21T20:54:46.455Z,95774.42
2018-02-21T20:57:14.882Z,95771.55
2018-02-21T20:59:43.246Z,95772.72
2018-02-21T21:02:11.637Z,95776.23
2018-02-21T21:04:39.996Z,95774.55
2018-02-21T21:07:08.363Z,95776.08
2018-02-21T21:09:36.718Z,95776.11
2018-02-21T21:12:05.072Z,95777.34
2018-02-21T21:14:33.426Z,95777.94
2018-02-21T21:17:01.833Z,95775.57
2018-02-21T21:19:30.188Z,95777.21
2018-02-21T21:21:58.537Z,95771.58
2018-02-21T21:24:26.898Z,95780.75
2018-02-21T21:26:55.312Z,95779.02
2018-02-21T21:29:23.675Z,95771.84
2018-02-21T21:31:52.035Z,95770.77
2018-02-21T21:34:20.402Z,95769.84
2018-02-21T21:36:48.772Z,95766.50
2018-02-21T21:39:17.146Z,95763.91
2018-02-21T21:41:45.505Z,95758.72
2018-02-21T21:44:13.906Z,95753.94
2018-02-21T21:46:42.253Z,95749.17
2018-02-21T21:49:10.632Z,95740.94
2018-02-21T21:51:38.993Z,95736.67
2018-02-21T21:54:07.359Z,95736.73
2018-02-21T21:56:35.712Z,95726.68
2018-02-21T21:59:04.077Z,95729.56
2018-02-21T22:01:32.632Z,95727.41
2018-02-21T22:04:01.007Z,95731.61
2018-02-21T22:06:29.391Z,95728.77
2018-02-21T22:08:57.763Z,95728.27
2018-02-21T22:11:26.114Z,95730.38
2018-02-21T22:13:54.478Z,95732.19
2018-02-21T22:16:22.835Z,95728.36
2018-02-21T22:18:51.202Z,95729.02
2018-02-21T22:21:19.562Z,95736.45
2018-02-21T22:23:47.938Z,95734.30
2018-02-21T22:26:16.290Z,95733.48
2018-02-21T22:28:44.650Z,95730.92
2018-02-21T22:31:13.004Z,95732.50
2018-02-21T22:33:41.373Z,95728.55
2018-02-21T22:36:09.746Z,95730.42
2018-02-21T22:38:38.131Z,95720.74
2018-02-21T22:41:06.498Z,95730.55
2018-02-21T22:43:34.857Z,95729.53
2018-02-21T22:46:03.244Z,95728.71
2018-02-21T22:48:31.599Z,95726.25
2018-02-21T22:50:59.960Z,95728.52
2018-02-21T22:53:28.318Z,95728.99
2018-02-21T22:55:56.678Z,95719.13
2018-02-21T22:58:25.043Z,95726.13
2018-02-21T23:00:53.402Z,95725.91
2018-02-21T23:03:21.746Z,95722.66
2018-02-21T23:05:50.110Z,95719.78
2018-02-21T23:08:18.596Z,95729.38
2018-02-21T23:10:46.967Z,95724.36
2018-02-21T23:13:15.318Z,95722.21
2018-02-21T23:15:43.684Z,95715.47
2018-02-21T23:18:12.040Z,95722.48
2018-02-21T23:20:40.387Z,95720.62
2018-02-21T23:23:08.755Z,95720.44
2018-02-21T23:25:37.187Z,95720.08
2018-02-21T23:28:05.547Z,95713.34
2018-02-21T23:30:33.910Z,95712.27
2018-02-21T23:33:02.270Z,95706.59
2018-02-21T23:35:30.663Z,95709.16
2018-02-21T23:37:59.062Z,95707.00
2018-02-21T23:40:27.394Z,95702.51
2018-02-21T23:42:55.754Z,95705.83
2018-02-21T23:45:24.115Z,95701.87
2018-02-21T23:47:52.483Z,95699.78
2018-02-21T23:50:20.830Z,95697.86
2018-02-21T23:52:49.192Z,95702.66
2018-02-21T23:55:17.545Z,95700.32
2018-02-21T23:57:45.906Z,95701.72
